sensor_id;sensor_type;location;lat;lon;timestamp;P1;durP1;ratioP1;P2;durP2;ratioP2
34142;SDS011;20419;10.658;106.724;2023-06-04T00:02:09;4.60;;;2.72;;
34142;SDS011;20419;10.658;106.724;2023-06-04T00:04:36;4.65;;;2.70;;
34142;SDS011;20419;10.658;106.724;2023-06-04T00:07:02;4.47;;;2.75;;
34142;SDS011;20419;10.658;106.724;2023-06-04T00:09:29;5.15;;;3.33;;
34142;SDS011;20419;10.658;106.724;2023-06-04T00:11:56;4.38;;;2.78;;
34142;SDS011;20419;10.658;106.724;2023-06-04T00:14:23;6.40;;;2.95;;
34142;SDS011;20419;10.658;106.724;2023-06-04T00:16:50;5.53;;;3.00;;
34142;SDS011;20419;10.658;106.724;2023-06-04T00:19:16;4.53;;;2.78;;
34142;SDS011;20419;10.658;106.724;2023-06-04T00:21:43;7.60;;;3.50;;
34142;SDS011;20419;10.658;106.724;2023-06-04T00:24:11;13.40;;;4.85;;
34142;SDS011;20419;10.658;106.724;2023-06-04T00:26:38;9.95;;;4.93;;
34142;SDS011;20419;10.658;106.724;2023-06-04T00:29:05;9.95;;;5.07;;
34142;SDS011;20419;10.658;106.724;2023-06-04T00:31:32;11.35;;;5.28;;
34142;SDS011;20419;10.658;106.724;2023-06-04T00:33:58;10.43;;;5.13;;
34142;SDS011;20419;10.658;106.724;2023-06-04T00:36:25;12.32;;;4.88;;
34142;SDS011;20419;10.658;106.724;2023-06-04T00:38:52;9.75;;;4.53;;
34142;SDS011;20419;10.658;106.724;2023-06-04T00:41:19;9.32;;;4.45;;
34142;SDS011;20419;10.658;106.724;2023-06-04T00:43:46;8.30;;;4.32;;
34142;SDS011;20419;10.658;106.724;2023-06-04T00:46:22;9.43;;;3.95;;
34142;SDS011;20419;10.658;106.724;2023-06-04T00:48:50;11.85;;;5.18;;
34142;SDS011;20419;10.658;106.724;2023-06-04T00:51:18;7.97;;;4.28;;
34142;SDS011;20419;10.658;106.724;2023-06-04T00:53:46;11.77;;;4.78;;
34142;SDS011;20419;10.658;106.724;2023-06-04T00:56:13;11.32;;;4.60;;
34142;SDS011;20419;10.658;106.724;2023-06-04T00:58:40;8.70;;;4.20;;
34142;SDS011;20419;10.658;106.724;2023-06-04T01:01:15;8.77;;;4.23;;
34142;SDS011;20419;10.658;106.724;2023-06-04T01:03:42;9.25;;;4.30;;
34142;SDS011;20419;10.658;106.724;2023-06-04T01:09:05;8.32;;;4.20;;
34142;SDS011;20419;10.658;106.724;2023-06-04T01:11:35;7.90;;;4.63;;
34142;SDS011;20419;10.658;106.724;2023-06-04T01:14:03;9.07;;;4.75;;
34142;SDS011;20419;10.658;106.724;2023-06-04T01:16:33;9.93;;;4.38;;
34142;SDS011;20419;10.658;106.724;2023-06-04T01:19:04;15.15;;;6.57;;
34142;SDS011;20419;10.658;106.724;2023-06-04T01:21:34;15.85;;;6.78;;
34142;SDS011;20419;10.658;106.724;2023-06-04T01:24:04;14.85;;;6.32;;
34142;SDS011;20419;10.658;106.724;2023-06-04T01:26:32;13.23;;;6.03;;
34142;SDS011;20419;10.658;106.724;2023-06-04T01:28:59;13.88;;;6.47;;
34142;SDS011;20419;10.658;106.724;2023-06-04T01:31:27;14.32;;;6.45;;
34142;SDS011;20419;10.658;106.724;2023-06-04T01:33:58;15.48;;;7.35;;
34142;SDS011;20419;10.658;106.724;2023-06-04T01:36:25;17.73;;;7.57;;
34142;SDS011;20419;10.658;106.724;2023-06-04T01:38:52;24.10;;;8.35;;
34142;SDS011;20419;10.658;106.724;2023-06-04T01:41:19;21.95;;;9.48;;
34142;SDS011;20419;10.658;106.724;2023-06-04T01:43:45;18.38;;;8.32;;
34142;SDS011;20419;10.658;106.724;2023-06-04T01:46:16;20.08;;;8.77;;
34142;SDS011;20419;10.658;106.724;2023-06-04T01:48:43;23.88;;;10.57;;
34142;SDS011;20419;10.658;106.724;2023-06-04T01:51:14;24.52;;;10.77;;
34142;SDS011;20419;10.658;106.724;2023-06-04T01:53:41;25.48;;;10.45;;
34142;SDS011;20419;10.658;106.724;2023-06-04T01:56:07;20.38;;;9.70;;
34142;SDS011;20419;10.658;106.724;2023-06-04T01:58:34;25.05;;;11.45;;
34142;SDS011;20419;10.658;106.724;2023-06-04T02:01:01;28.88;;;11.82;;
34142;SDS011;20419;10.658;106.724;2023-06-04T02:03:28;25.17;;;10.75;;
34142;SDS011;20419;10.658;106.724;2023-06-04T02:06:03;26.02;;;10.85;;
34142;SDS011;20419;10.658;106.724;2023-06-04T02:08:33;24.65;;;11.18;;
34142;SDS011;20419;10.658;106.724;2023-06-04T02:11:00;30.00;;;12.93;;
34142;SDS011;20419;10.658;106.724;2023-06-04T02:13:27;25.90;;;11.65;;
34142;SDS011;20419;10.658;106.724;2023-06-04T02:15:54;24.83;;;12.32;;
34142;SDS011;20419;10.658;106.724;2023-06-04T02:18:21;23.35;;;11.80;;
34142;SDS011;20419;10.658;106.724;2023-06-04T02:20:48;26.75;;;10.63;;
34142;SDS011;20419;10.658;106.724;2023-06-04T02:23:15;27.77;;;13.02;;
34142;SDS011;20419;10.658;106.724;2023-06-04T02:25:43;25.35;;;12.98;;
34142;SDS011;20419;10.658;106.724;2023-06-04T02:28:10;27.48;;;11.70;;
34142;SDS011;20419;10.658;106.724;2023-06-04T02:30:37;25.73;;;12.32;;
34142;SDS011;20419;10.658;106.724;2023-06-04T02:33:04;23.50;;;11.93;;
34142;SDS011;20419;10.658;106.724;2023-06-04T02:35:31;27.70;;;13.50;;
34142;SDS011;20419;10.658;106.724;2023-06-04T02:37:58;22.90;;;11.65;;
34142;SDS011;20419;10.658;106.724;2023-06-04T02:40:25;24.33;;;12.57;;
34142;SDS011;20419;10.658;106.724;2023-06-04T02:42:52;23.15;;;11.38;;
34142;SDS011;20419;10.658;106.724;2023-06-04T02:45:19;27.63;;;11.70;;
34142;SDS011;20419;10.658;106.724;2023-06-04T02:47:46;25.77;;;11.52;;
34142;SDS011;20419;10.658;106.724;2023-06-04T02:50:14;25.55;;;11.80;;
34142;SDS011;20419;10.658;106.724;2023-06-04T02:52:41;22.73;;;11.55;;
34142;SDS011;20419;10.658;106.724;2023-06-04T02:55:09;25.05;;;11.60;;
34142;SDS011;20419;10.658;106.724;2023-06-04T02:57:38;21.48;;;12.25;;
34142;SDS011;20419;10.658;106.724;2023-06-04T03:00:06;28.02;;;10.70;;
34142;SDS011;20419;10.658;106.724;2023-06-04T03:02:43;23.23;;;11.50;;
34142;SDS011;20419;10.658;106.724;2023-06-04T03:05:11;23.50;;;11.70;;
34142;SDS011;20419;10.658;106.724;2023-06-04T03:07:42;22.08;;;10.73;;
34142;SDS011;20419;10.658;106.724;2023-06-04T03:10:27;20.40;;;10.52;;
34142;SDS011;20419;10.658;106.724;2023-06-04T03:12:54;20.23;;;11.20;;
34142;SDS011;20419;10.658;106.724;2023-06-04T03:15:21;19.67;;;10.32;;
34142;SDS011;20419;10.658;106.724;2023-06-04T03:17:48;22.40;;;11.23;;
34142;SDS011;20419;10.658;106.724;2023-06-04T03:20:16;23.33;;;11.23;;
34142;SDS011;20419;10.658;106.724;2023-06-04T03:22:43;24.88;;;12.27;;
34142;SDS011;20419;10.658;106.724;2023-06-04T03:25:10;20.73;;;11.15;;
34142;SDS011;20419;10.658;106.724;2023-06-04T03:27:37;22.63;;;11.38;;
34142;SDS011;20419;10.658;106.724;2023-06-04T03:30:04;21.20;;;10.90;;
34142;SDS011;20419;10.658;106.724;2023-06-04T03:32:31;21.63;;;11.48;;
34142;SDS011;20419;10.658;106.724;2023-06-04T03:34:58;22.58;;;10.65;;
34142;SDS011;20419;10.658;106.724;2023-06-04T03:37:25;18.92;;;10.25;;
34142;SDS011;20419;10.658;106.724;2023-06-04T03:39:52;22.65;;;10.95;;
34142;SDS011;20419;10.658;106.724;2023-06-04T03:42:19;22.08;;;11.98;;
34142;SDS011;20419;10.658;106.724;2023-06-04T03:44:45;22.02;;;10.70;;
34142;SDS011;20419;10.658;106.724;2023-06-04T03:47:12;21.65;;;10.38;;
34142;SDS011;20419;10.658;106.724;2023-06-04T03:49:52;18.55;;;9.90;;
34142;SDS011;20419;10.658;106.724;2023-06-04T03:52:18;19.83;;;9.52;;
34142;SDS011;20419;10.658;106.724;2023-06-04T03:54:45;17.42;;;9.93;;
34142;SDS011;20419;10.658;106.724;2023-06-04T03:57:12;20.45;;;9.45;;
34142;SDS011;20419;10.658;106.724;2023-06-04T03:59:39;23.25;;;9.88;;
34142;SDS011;20419;10.658;106.724;2023-06-04T04:02:11;21.33;;;9.90;;
34142;SDS011;20419;10.658;106.724;2023-06-04T04:04:47;16.02;;;9.45;;
34142;SDS011;20419;10.658;106.724;2023-06-04T04:07:19;20.45;;;9.80;;
34142;SDS011;20419;10.658;106.724;2023-06-04T04:10:07;17.50;;;9.20;;
34142;SDS011;20419;10.658;106.724;2023-06-04T04:12:38;18.35;;;9.75;;
34142;SDS011;20419;10.658;106.724;2023-06-04T04:15:05;16.50;;;9.30;;
34142;SDS011;20419;10.658;106.724;2023-06-04T04:17:32;16.55;;;8.93;;
34142;SDS011;20419;10.658;106.724;2023-06-04T04:19:59;14.77;;;8.35;;
34142;SDS011;20419;10.658;106.724;2023-06-04T04:22:26;17.02;;;9.40;;
34142;SDS011;20419;10.658;106.724;2023-06-04T04:24:53;16.92;;;8.90;;
34142;SDS011;20419;10.658;106.724;2023-06-04T04:27:23;16.02;;;9.02;;
34142;SDS011;20419;10.658;106.724;2023-06-04T04:29:55;16.85;;;8.82;;
34142;SDS011;20419;10.658;106.724;2023-06-04T04:32:28;16.00;;;8.25;;
34142;SDS011;20419;10.658;106.724;2023-06-04T04:35:04;13.98;;;8.18;;
34142;SDS011;20419;10.658;106.724;2023-06-04T04:37:37;13.70;;;7.45;;
34142;SDS011;20419;10.658;106.724;2023-06-04T04:40:10;15.40;;;7.82;;
34142;SDS011;20419;10.658;106.724;2023-06-04T04:42:37;12.57;;;7.53;;
34142;SDS011;20419;10.658;106.724;2023-06-04T04:45:04;14.65;;;8.15;;
34142;SDS011;20419;10.658;106.724;2023-06-04T04:47:31;14.63;;;7.70;;
34142;SDS011;20419;10.658;106.724;2023-06-04T04:49:57;15.15;;;7.97;;
34142;SDS011;20419;10.658;106.724;2023-06-04T04:52:24;14.70;;;8.48;;
34142;SDS011;20419;10.658;106.724;2023-06-04T04:54:51;13.80;;;7.90;;
34142;SDS011;20419;10.658;106.724;2023-06-04T04:57:21;12.60;;;7.57;;
34142;SDS011;20419;10.658;106.724;2023-06-04T04:59:48;13.07;;;7.05;;
34142;SDS011;20419;10.658;106.724;2023-06-04T05:02:15;14.48;;;7.60;;
34142;SDS011;20419;10.658;106.724;2023-06-04T05:04:42;17.83;;;7.35;;
34142;SDS011;20419;10.658;106.724;2023-06-04T05:07:09;16.25;;;7.57;;
34142;SDS011;20419;10.658;106.724;2023-06-04T05:09:36;15.30;;;7.35;;
34142;SDS011;20419;10.658;106.724;2023-06-04T05:12:03;18.58;;;6.85;;
34142;SDS011;20419;10.658;106.724;2023-06-04T05:14:30;12.38;;;6.97;;
34142;SDS011;20419;10.658;106.724;2023-06-04T05:16:57;16.25;;;7.43;;
34142;SDS011;20419;10.658;106.724;2023-06-04T05:19:24;12.23;;;7.15;;
34142;SDS011;20419;10.658;106.724;2023-06-04T05:21:51;13.13;;;5.90;;
34142;SDS011;20419;10.658;106.724;2023-06-04T05:24:18;12.93;;;6.75;;
34142;SDS011;20419;10.658;106.724;2023-06-04T05:26:45;11.43;;;5.85;;
34142;SDS011;20419;10.658;106.724;2023-06-04T05:29:13;12.32;;;6.15;;
34142;SDS011;20419;10.658;106.724;2023-06-04T05:31:40;10.02;;;5.68;;
34142;SDS011;20419;10.658;106.724;2023-06-04T05:34:07;12.38;;;6.78;;
34142;SDS011;20419;10.658;106.724;2023-06-04T05:36:35;11.93;;;6.80;;
34142;SDS011;20419;10.658;106.724;2023-06-04T05:39:01;11.82;;;6.05;;
34142;SDS011;20419;10.658;106.724;2023-06-04T05:41:29;12.68;;;5.85;;
34142;SDS011;20419;10.658;106.724;2023-06-04T05:43:56;10.77;;;5.93;;
34142;SDS011;20419;10.658;106.724;2023-06-04T05:46:31;13.60;;;5.75;;
34142;SDS011;20419;10.658;106.724;2023-06-04T05:49:08;11.07;;;6.07;;
34142;SDS011;20419;10.658;106.724;2023-06-04T05:51:35;8.95;;;5.50;;
34142;SDS011;20419;10.658;106.724;2023-06-04T05:54:02;10.25;;;6.40;;
34142;SDS011;20419;10.658;106.724;2023-06-04T05:56:29;8.90;;;5.65;;
34142;SDS011;20419;10.658;106.724;2023-06-04T05:58:56;9.55;;;5.60;;
34142;SDS011;20419;10.658;106.724;2023-06-04T06:01:22;9.48;;;5.45;;
34142;SDS011;20419;10.658;106.724;2023-06-04T06:03:49;9.13;;;5.97;;
34142;SDS011;20419;10.658;106.724;2023-06-04T06:06:16;9.10;;;4.85;;
34142;SDS011;20419;10.658;106.724;2023-06-04T06:08:43;9.85;;;5.60;;
34142;SDS011;20419;10.658;106.724;2023-06-04T06:11:10;8.98;;;5.53;;
34142;SDS011;20419;10.658;106.724;2023-06-04T06:13:37;7.95;;;4.93;;
34142;SDS011;20419;10.658;106.724;2023-06-04T06:16:04;8.75;;;5.07;;
34142;SDS011;20419;10.658;106.724;2023-06-04T06:18:31;8.85;;;5.05;;
34142;SDS011;20419;10.658;106.724;2023-06-04T06:20:58;8.73;;;5.20;;
34142;SDS011;20419;10.658;106.724;2023-06-04T06:23:25;8.35;;;4.65;;
34142;SDS011;20419;10.658;106.724;2023-06-04T06:25:52;9.98;;;5.28;;
34142;SDS011;20419;10.658;106.724;2023-06-04T06:28:19;9.60;;;4.82;;
34142;SDS011;20419;10.658;106.724;2023-06-04T06:30:46;9.60;;;5.15;;
34142;SDS011;20419;10.658;106.724;2023-06-04T06:33:13;7.68;;;4.95;;
34142;SDS011;20419;10.658;106.724;2023-06-04T06:35:40;8.43;;;4.80;;
34142;SDS011;20419;10.658;106.724;2023-06-04T06:38:07;7.15;;;4.95;;
34142;SDS011;20419;10.658;106.724;2023-06-04T06:40:34;7.68;;;5.05;;
34142;SDS011;20419;10.658;106.724;2023-06-04T06:43:00;7.65;;;4.70;;
34142;SDS011;20419;10.658;106.724;2023-06-04T06:45:27;8.77;;;4.88;;
34142;SDS011;20419;10.658;106.724;2023-06-04T06:47:54;7.57;;;4.53;;
34142;SDS011;20419;10.658;106.724;2023-06-04T06:50:21;6.75;;;4.35;;
34142;SDS011;20419;10.658;106.724;2023-06-04T06:52:47;9.43;;;4.15;;
34142;SDS011;20419;10.658;106.724;2023-06-04T06:55:14;7.75;;;4.85;;
34142;SDS011;20419;10.658;106.724;2023-06-04T06:57:42;7.20;;;4.57;;
34142;SDS011;20419;10.658;106.724;2023-06-04T07:00:09;7.18;;;4.68;;
34142;SDS011;20419;10.658;106.724;2023-06-04T07:02:36;7.68;;;4.65;;
34142;SDS011;20419;10.658;106.724;2023-06-04T07:05:03;6.78;;;4.55;;
34142;SDS011;20419;10.658;106.724;2023-06-04T07:07:30;6.10;;;3.55;;
34142;SDS011;20419;10.658;106.724;2023-06-04T07:09:57;8.50;;;4.70;;
34142;SDS011;20419;10.658;106.724;2023-06-04T07:12:27;6.53;;;3.85;;
34142;SDS011;20419;10.658;106.724;2023-06-04T07:14:54;7.68;;;4.30;;
34142;SDS011;20419;10.658;106.724;2023-06-04T07:17:21;8.05;;;4.00;;
34142;SDS011;20419;10.658;106.724;2023-06-04T07:19:48;5.78;;;3.72;;
34142;SDS011;20419;10.658;106.724;2023-06-04T07:22:15;6.03;;;3.60;;
34142;SDS011;20419;10.658;106.724;2023-06-04T07:24:42;5.97;;;4.05;;
34142;SDS011;20419;10.658;106.724;2023-06-04T07:27:12;6.90;;;4.05;;
34142;SDS011;20419;10.658;106.724;2023-06-04T07:29:39;6.45;;;4.10;;
34142;SDS011;20419;10.658;106.724;2023-06-04T07:32:06;6.40;;;3.70;;
34142;SDS011;20419;10.658;106.724;2023-06-04T07:34:33;6.10;;;3.60;;
34142;SDS011;20419;10.658;106.724;2023-06-04T07:37:02;6.47;;;3.90;;
34142;SDS011;20419;10.658;106.724;2023-06-04T07:39:29;6.13;;;3.88;;
34142;SDS011;20419;10.658;106.724;2023-06-04T07:41:56;7.70;;;4.15;;
34142;SDS011;20419;10.658;106.724;2023-06-04T07:44:22;5.93;;;3.60;;
34142;SDS011;20419;10.658;106.724;2023-06-04T07:46:49;6.85;;;4.03;;
34142;SDS011;20419;10.658;106.724;2023-06-04T07:49:16;6.70;;;3.55;;
34142;SDS011;20419;10.658;106.724;2023-06-04T07:51:43;7.20;;;4.03;;
34142;SDS011;20419;10.658;106.724;2023-06-04T07:54:10;4.85;;;3.08;;
34142;SDS011;20419;10.658;106.724;2023-06-04T07:56:37;5.78;;;3.50;;
34142;SDS011;20419;10.658;106.724;2023-06-04T07:59:07;6.43;;;4.00;;
34142;SDS011;20419;10.658;106.724;2023-06-04T08:01:33;9.10;;;4.28;;
34142;SDS011;20419;10.658;106.724;2023-06-04T08:04:00;6.22;;;3.70;;
34142;SDS011;20419;10.658;106.724;2023-06-04T08:06:27;7.95;;;3.50;;
34142;SDS011;20419;10.658;106.724;2023-06-04T08:08:54;4.68;;;3.00;;
34142;SDS011;20419;10.658;106.724;2023-06-04T08:11:21;6.05;;;3.58;;
34142;SDS011;20419;10.658;106.724;2023-06-04T08:13:51;6.68;;;3.90;;
34142;SDS011;20419;10.658;106.724;2023-06-04T08:16:17;6.22;;;3.60;;
34142;SDS011;20419;10.658;106.724;2023-06-04T08:18:44;6.50;;;3.33;;
34142;SDS011;20419;10.658;106.724;2023-06-04T08:21:11;6.55;;;3.78;;
34142;SDS011;20419;10.658;106.724;2023-06-04T08:23:38;5.32;;;3.40;;
34142;SDS011;20419;10.658;106.724;2023-06-04T08:26:05;4.85;;;3.30;;
34142;SDS011;20419;10.658;106.724;2023-06-04T08:28:32;6.28;;;3.72;;
34142;SDS011;20419;10.658;106.724;2023-06-04T08:31:08;5.85;;;3.05;;
34142;SDS011;20419;10.658;106.724;2023-06-04T08:33:36;5.57;;;3.20;;
34142;SDS011;20419;10.658;106.724;2023-06-04T08:36:02;6.07;;;3.70;;
34142;SDS011;20419;10.658;106.724;2023-06-04T08:38:29;4.82;;;2.80;;
34142;SDS011;20419;10.658;106.724;2023-06-04T08:40:57;5.82;;;3.38;;
34142;SDS011;20419;10.658;106.724;2023-06-04T08:43:24;5.40;;;3.60;;
34142;SDS011;20419;10.658;106.724;2023-06-04T08:45:52;6.28;;;3.63;;
34142;SDS011;20419;10.658;106.724;2023-06-04T08:48:32;6.57;;;3.30;;
34142;SDS011;20419;10.658;106.724;2023-06-04T08:50:59;5.65;;;3.75;;
34142;SDS011;20419;10.658;106.724;2023-06-04T08:53:26;4.97;;;3.28;;
34142;SDS011;20419;10.658;106.724;2023-06-04T08:55:53;5.30;;;3.20;;
34142;SDS011;20419;10.658;106.724;2023-06-04T08:58:20;5.50;;;3.22;;
34142;SDS011;20419;10.658;106.724;2023-06-04T09:00:48;6.00;;;3.58;;
34142;SDS011;20419;10.658;106.724;2023-06-04T09:03:16;5.07;;;2.95;;
34142;SDS011;20419;10.658;106.724;2023-06-04T09:05:44;5.95;;;3.28;;
34142;SDS011;20419;10.658;106.724;2023-06-04T09:08:13;4.68;;;2.97;;
34142;SDS011;20419;10.658;106.724;2023-06-04T09:10:40;5.18;;;3.08;;
34142;SDS011;20419;10.658;106.724;2023-06-04T09:13:08;5.28;;;3.17;;
34142;SDS011;20419;10.658;106.724;2023-06-04T09:15:35;6.22;;;3.47;;
34142;SDS011;20419;10.658;106.724;2023-06-04T09:18:02;6.80;;;2.92;;
34142;SDS011;20419;10.658;106.724;2023-06-04T09:20:28;6.85;;;3.53;;
34142;SDS011;20419;10.658;106.724;2023-06-04T09:22:55;5.30;;;3.00;;
34142;SDS011;20419;10.658;106.724;2023-06-04T09:25:25;6.53;;;3.22;;
34142;SDS011;20419;10.658;106.724;2023-06-04T09:27:53;6.60;;;3.30;;
34142;SDS011;20419;10.658;106.724;2023-06-04T09:30:23;5.45;;;3.38;;
34142;SDS011;20419;10.658;106.724;2023-06-04T09:32:50;5.22;;;3.22;;
34142;SDS011;20419;10.658;106.724;2023-06-04T09:35:19;5.82;;;3.70;;
34142;SDS011;20419;10.658;106.724;2023-06-04T09:37:52;5.85;;;2.92;;
34142;SDS011;20419;10.658;106.724;2023-06-04T09:40:19;5.28;;;3.15;;
34142;SDS011;20419;10.658;106.724;2023-06-04T09:42:47;5.13;;;2.67;;
34142;SDS011;20419;10.658;106.724;2023-06-04T09:45:35;4.93;;;2.85;;
34142;SDS011;20419;10.658;106.724;2023-06-04T09:48:02;5.30;;;3.10;;
34142;SDS011;20419;10.658;106.724;2023-06-04T09:50:31;5.40;;;3.43;;
34142;SDS011;20419;10.658;106.724;2023-06-04T09:52:59;4.55;;;2.83;;
34142;SDS011;20419;10.658;106.724;2023-06-04T09:55:27;5.35;;;3.00;;
34142;SDS011;20419;10.658;106.724;2023-06-04T09:57:54;5.45;;;3.00;;
34142;SDS011;20419;10.658;106.724;2023-06-04T10:00:22;4.28;;;2.67;;
34142;SDS011;20419;10.658;106.724;2023-06-04T10:02:51;4.65;;;3.00;;
34142;SDS011;20419;10.658;106.724;2023-06-04T10:05:20;4.65;;;2.88;;
34142;SDS011;20419;10.658;106.724;2023-06-04T10:07:47;4.40;;;2.50;;
34142;SDS011;20419;10.658;106.724;2023-06-04T10:10:18;4.85;;;2.75;;
34142;SDS011;20419;10.658;106.724;2023-06-04T10:12:47;4.95;;;2.85;;
34142;SDS011;20419;10.658;106.724;2023-06-04T10:15:15;5.53;;;3.22;;
34142;SDS011;20419;10.658;106.724;2023-06-04T10:17:44;4.65;;;2.75;;
34142;SDS011;20419;10.658;106.724;2023-06-04T10:20:11;4.32;;;2.88;;
34142;SDS011;20419;10.658;106.724;2023-06-04T10:22:38;4.40;;;2.72;;
34142;SDS011;20419;10.658;106.724;2023-06-04T10:25:05;5.38;;;3.35;;
34142;SDS011;20419;10.658;106.724;2023-06-04T10:27:32;4.97;;;2.80;;
34142;SDS011;20419;10.658;106.724;2023-06-04T10:30:02;5.10;;;2.80;;
34142;SDS011;20419;10.658;106.724;2023-06-04T10:32:29;6.10;;;3.08;;
34142;SDS011;20419;10.658;106.724;2023-06-04T10:34:56;5.20;;;3.50;;
34142;SDS011;20419;10.658;106.724;2023-06-04T10:37:24;4.28;;;2.60;;
34142;SDS011;20419;10.658;106.724;2023-06-04T10:39:57;5.53;;;3.30;;
34142;SDS011;20419;10.658;106.724;2023-06-04T10:42:25;4.88;;;3.00;;
34142;SDS011;20419;10.658;106.724;2023-06-04T10:44:52;5.57;;;3.08;;
34142;SDS011;20419;10.658;106.724;2023-06-04T10:49:47;4.60;;;2.97;;
34142;SDS011;20419;10.658;106.724;2023-06-04T10:52:14;5.50;;;3.38;;
34142;SDS011;20419;10.658;106.724;2023-06-04T10:54:42;6.43;;;3.25;;
34142;SDS011;20419;10.658;106.724;2023-06-04T10:57:12;5.90;;;2.60;;
34142;SDS011;20419;10.658;106.724;2023-06-04T10:59:39;4.45;;;2.60;;
34142;SDS011;20419;10.658;106.724;2023-06-04T11:02:06;4.97;;;2.83;;
34142;SDS011;20419;10.658;106.724;2023-06-04T11:04:34;5.00;;;3.00;;
34142;SDS011;20419;10.658;106.724;2023-06-04T11:07:06;5.47;;;2.70;;
34142;SDS011;20419;10.658;106.724;2023-06-04T11:09:37;4.70;;;3.17;;
34142;SDS011;20419;10.658;106.724;2023-06-04T11:12:04;4.90;;;2.85;;
34142;SDS011;20419;10.658;106.724;2023-06-04T11:14:31;5.72;;;3.10;;
34142;SDS011;20419;10.658;106.724;2023-06-04T11:17:08;4.05;;;2.45;;
34142;SDS011;20419;10.658;106.724;2023-06-04T11:19:36;5.60;;;3.10;;
34142;SDS011;20419;10.658;106.724;2023-06-04T11:22:04;4.15;;;2.55;;
34142;SDS011;20419;10.658;106.724;2023-06-04T11:24:31;4.77;;;2.67;;
34142;SDS011;20419;10.658;106.724;2023-06-04T11:26:58;3.90;;;2.60;;
34142;SDS011;20419;10.658;106.724;2023-06-04T11:29:25;5.72;;;2.40;;
34142;SDS011;20419;10.658;106.724;2023-06-04T11:31:52;4.15;;;2.50;;
34142;SDS011;20419;10.658;106.724;2023-06-04T11:34:28;5.85;;;2.80;;
34142;SDS011;20419;10.658;106.724;2023-06-04T11:37:10;4.15;;;2.83;;
34142;SDS011;20419;10.658;106.724;2023-06-04T11:39:37;4.82;;;2.70;;
34142;SDS011;20419;10.658;106.724;2023-06-04T11:42:05;5.00;;;2.63;;
34142;SDS011;20419;10.658;106.724;2023-06-04T11:44:32;4.80;;;2.47;;
34142;SDS011;20419;10.658;106.724;2023-06-04T11:46:59;4.45;;;2.90;;
34142;SDS011;20419;10.658;106.724;2023-06-04T11:49:26;4.97;;;2.70;;
34142;SDS011;20419;10.658;106.724;2023-06-04T11:51:53;4.88;;;2.72;;
34142;SDS011;20419;10.658;106.724;2023-06-04T11:54:21;4.60;;;2.63;;
34142;SDS011;20419;10.658;106.724;2023-06-04T11:56:49;4.90;;;3.05;;
34142;SDS011;20419;10.658;106.724;2023-06-04T11:59:16;4.80;;;2.53;;
34142;SDS011;20419;10.658;106.724;2023-06-04T12:01:43;6.40;;;2.75;;
34142;SDS011;20419;10.658;106.724;2023-06-04T12:04:14;5.22;;;2.75;;
34142;SDS011;20419;10.658;106.724;2023-06-04T12:07:01;4.38;;;2.42;;
34142;SDS011;20419;10.658;106.724;2023-06-04T12:09:30;4.47;;;2.53;;
34142;SDS011;20419;10.658;106.724;2023-06-04T12:12:00;4.88;;;2.40;;
34142;SDS011;20419;10.658;106.724;2023-06-04T12:14:27;5.32;;;2.88;;
34142;SDS011;20419;10.658;106.724;2023-06-04T12:16:58;4.95;;;2.55;;
34142;SDS011;20419;10.658;106.724;2023-06-04T12:19:25;4.68;;;2.40;;
34142;SDS011;20419;10.658;106.724;2023-06-04T12:22:04;4.43;;;2.38;;
34142;SDS011;20419;10.658;106.724;2023-06-04T12:24:34;4.45;;;2.80;;
34142;SDS011;20419;10.658;106.724;2023-06-04T12:27:05;4.38;;;2.38;;
34142;SDS011;20419;10.658;106.724;2023-06-04T12:29:33;4.78;;;2.10;;
34142;SDS011;20419;10.658;106.724;2023-06-04T12:34:31;5.53;;;2.95;;
34142;SDS011;20419;10.658;106.724;2023-06-04T12:36:58;4.57;;;2.30;;
34142;SDS011;20419;10.658;106.724;2023-06-04T12:39:25;4.82;;;2.45;;
34142;SDS011;20419;10.658;106.724;2023-06-04T12:41:52;4.38;;;2.72;;
34142;SDS011;20419;10.658;106.724;2023-06-04T12:44:19;4.35;;;2.20;;
34142;SDS011;20419;10.658;106.724;2023-06-04T12:46:46;4.32;;;2.53;;
34142;SDS011;20419;10.658;106.724;2023-06-04T12:49:13;5.60;;;2.92;;
34142;SDS011;20419;10.658;106.724;2023-06-04T12:51:40;3.67;;;2.22;;
34142;SDS011;20419;10.658;106.724;2023-06-04T12:54:07;4.25;;;2.47;;
34142;SDS011;20419;10.658;106.724;2023-06-04T12:56:34;5.68;;;2.92;;
34142;SDS011;20419;10.658;106.724;2023-06-04T12:59:00;5.13;;;2.35;;
34142;SDS011;20419;10.658;106.724;2023-06-04T13:01:27;4.47;;;2.40;;
34142;SDS011;20419;10.658;106.724;2023-06-04T13:03:56;8.45;;;2.58;;
34142;SDS011;20419;10.658;106.724;2023-06-04T13:06:23;5.47;;;2.47;;
34142;SDS011;20419;10.658;106.724;2023-06-04T13:08:50;5.10;;;2.60;;
34142;SDS011;20419;10.658;106.724;2023-06-04T13:11:18;5.13;;;2.55;;
34142;SDS011;20419;10.658;106.724;2023-06-04T13:13:44;5.22;;;2.45;;
34142;SDS011;20419;10.658;106.724;2023-06-04T13:16:11;4.25;;;2.58;;
34142;SDS011;20419;10.658;106.724;2023-06-04T13:18:38;5.10;;;2.67;;
34142;SDS011;20419;10.658;106.724;2023-06-04T13:21:05;4.32;;;2.25;;
34142;SDS011;20419;10.658;106.724;2023-06-04T13:23:32;4.95;;;2.30;;
34142;SDS011;20419;10.658;106.724;2023-06-04T13:25:59;5.43;;;2.58;;
34142;SDS011;20419;10.658;106.724;2023-06-04T13:28:26;4.43;;;2.53;;
34142;SDS011;20419;10.658;106.724;2023-06-04T13:30:53;5.32;;;2.60;;
34142;SDS011;20419;10.658;106.724;2023-06-04T13:33:20;6.60;;;2.20;;
34142;SDS011;20419;10.658;106.724;2023-06-04T13:35:47;6.25;;;2.70;;
34142;SDS011;20419;10.658;106.724;2023-06-04T13:38:16;5.38;;;2.42;;
34142;SDS011;20419;10.658;106.724;2023-06-04T13:40:43;4.17;;;2.17;;
34142;SDS011;20419;10.658;106.724;2023-06-04T13:43:10;7.18;;;2.47;;
34142;SDS011;20419;10.658;106.724;2023-06-04T13:45:37;5.50;;;3.15;;
34142;SDS011;20419;10.658;106.724;2023-06-04T13:48:05;4.57;;;2.30;;
34142;SDS011;20419;10.658;106.724;2023-06-04T13:50:32;4.57;;;2.55;;
34142;SDS011;20419;10.658;106.724;2023-06-04T13:53:00;5.05;;;2.47;;
34142;SDS011;20419;10.658;106.724;2023-06-04T13:55:27;4.43;;;2.20;;
34142;SDS011;20419;10.658;106.724;2023-06-04T13:57:54;4.53;;;2.20;;
34142;SDS011;20419;10.658;106.724;2023-06-04T14:00:21;4.82;;;2.55;;
34142;SDS011;20419;10.658;106.724;2023-06-04T14:02:48;5.22;;;2.13;;
34142;SDS011;20419;10.658;106.724;2023-06-04T14:05:15;4.95;;;2.38;;
34142;SDS011;20419;10.658;106.724;2023-06-04T14:07:43;5.97;;;2.60;;
34142;SDS011;20419;10.658;106.724;2023-06-04T14:10:10;5.00;;;2.22;;
34142;SDS011;20419;10.658;106.724;2023-06-04T14:12:38;6.28;;;2.90;;
34142;SDS011;20419;10.658;106.724;2023-06-04T14:15:07;5.15;;;2.63;;
34142;SDS011;20419;10.658;106.724;2023-06-04T14:17:34;5.53;;;2.37;;
34142;SDS011;20419;10.658;106.724;2023-06-04T14:20:01;5.22;;;2.40;;
34142;SDS011;20419;10.658;106.724;2023-06-04T14:22:38;6.40;;;2.95;;
34142;SDS011;20419;10.658;106.724;2023-06-04T14:25:06;5.63;;;2.50;;
34142;SDS011;20419;10.658;106.724;2023-06-04T14:27:40;3.60;;;2.03;;
34142;SDS011;20419;10.658;106.724;2023-06-04T14:30:19;6.68;;;2.90;;